ADDS METAR Data INFO
IDs: Format: Raw Decoded Include TAF

Data at: 0903 UTC 20 Oct 2017

KXVG 200856Z AUTO 14003KT 10SM CLR 10/06 A2979 RMK AO2
KXVG 200836Z AUTO 14003KT 10SM CLR 10/06 A2979 RMK AO2
KXVG 200816Z AUTO 14004KT 10SM CLR 10/06 A2981 RMK AO2
KXVG 200756Z AUTO 14004KT 10SM CLR 11/06 A2981 RMK AO2
KXVG 200736Z AUTO 14004KT 10SM CLR 11/06 A2982 RMK AO2
KXVG 200716Z AUTO 15003KT 10SM CLR 11/06 A2982 RMK AO2
KXVG 200656Z AUTO 16004KT 10SM CLR 12/06 A29 RMK AO2
KXVG 200636Z AUTO 17004KT 10SM CLR 13/06 A2982 RMK AO2
KXVG 200616Z AUTO 17005KT 10SM CLR 14/06 A2983 RMK AO2
KXVG 200556Z AUTO 18007KT 10SM CLR 14/06 A2983 RMK AO2
KXVG 200536Z AUTO 18006KT 10SM CLR 14/05 A2983 RMK AO2
KXVG 200516Z AUTO 18004KT 10SM CLR 14/05 A2983 RMK AO2
KXVG 200456Z AUTO 17007KT 10SM CLR 14/04 A2983 RMK AO2
KXVG 200436Z AUTO 19006KT 10SM CLR 14/04 A2983 RMK AO2
KXVG 200416Z AUTO 17005KT 10SM CLR 15/04 A2984 RMK AO2
KXVG 200356Z AUTO 19007KT 154V214 10SM CLR 15/04 A2984 RMK AO2
KXVG 200336Z AUTO 17008G14KT 10SM CLR 16/03 A2984 RMK AO2
KXVG 200316Z AUTO 17007KT 10SM CLR 15/03 A2984 RMK AO2
KXVG 200256Z AUTO 16008KT 10SM CLR 15/03 A2984 RMK AO2
KXVG 200236Z AUTO 16008KT 10SM CLR 16/03 A2984 RMK AO2
KXVG 200216Z AUTO 16008KT 10SM CLR 15/03 A2985 RMK AO2
KXVG 200156Z AUTO 16007KT 10SM CLR 15/03 A2985 RMK AO2
KXVG 200136Z AUTO 16007KT 10SM CLR 15/03 A2985 RMK AO2
KXVG 200116Z AUTO 15006KT 10SM CLR 14/03 A2985 RMK AO2
KXVG 200056Z AUTO 15006KT 10SM CLR 14/03 A2985 RMK AO2
KXVG 200036Z AUTO 15006KT 10SM CLR 14/03 A2986 RMK AO2
KXVG 200016Z AUTO 15007KT 10SM CLR 14/02 A2986 RMK AO2
KXVG 192356Z AUTO 15006KT 10SM CLR 16/02 A2986 RMK AO2
KXVG 192336Z AUTO 17007KT 10SM CLR 17/01 A2986 RMK AO2
KXVG 192316Z AUTO 16008KT 10SM CLR 18/01 A2986 RMK AO2
KXVG 192256Z AUTO 15008KT 10SM CLR 19/01 A2986 RMK AO2
KXVG 192236Z AUTO 18009G15KT 10SM CLR 20/01 A2985 RMK AO2
KXVG 192216Z AUTO 19007G16KT 154V214 10SM CLR 21/01 A2985 RMK AO2
KXVG 192156Z AUTO 19009G18KT 10SM CLR 21/01 A2986 RMK AO2
KXVG 192136Z AUTO 19008KT 10SM CLR 22/01 A2986 RMK AO2
KXVG 192116Z AUTO 18009G15KT 10SM CLR 22/01 A2986 RMK AO2
KXVG 192056Z AUTO 18010G17KT 154V234 10SM CLR 22/01 A2987 RMK AO2
KXVG 192036Z AUTO 21008G20KT 184V254 10SM CLR 22/01 A2987 RMK AO2
KXVG 192016Z AUTO 19006G16KT 10SM CLR 22/01 A2988 RMK AO2
KXVG 191956Z AUTO 21011KT 10SM CLR 21/01 A2988 RMK AO2
KXVG 191936Z AUTO 19007G14KT 10SM CLR 22/01 A2989 RMK AO2
KXVG 191916Z AUTO 18010G20KT 164V224 10SM CLR 21/00 A2989 RMK AO2
KXVG 191856Z AUTO 18012G20KT 10SM CLR 20/M01 A2990 RMK AO2
KXVG 191836Z AUTO 18008G14KT 10SM CLR 19/M01 A2991 RMK AO2
KXVG 191801Z AUTO 17008G21KT 10SM CLR 18/M01 A2993 RMK AO2
KXVG 191736Z AUTO 18007G19KT 10SM CLR 18/M01 A2994 RMK AO2
KXVG 191716Z AUTO 19011G16KT 10SM CLR 18/M02 A2995 RMK AO2
KXVG 191656Z AUTO 16008KT 10SM CLR 17/M01 A2995 RMK AO2
KXVG 191636Z AUTO 16007KT 10SM CLR 16/M02 A2996 RMK AO2
KXVG 191616Z AUTO 15005KT 10SM CLR 14/M02 A2997 RMK AO2
KXVG 191556Z AUTO 15000KT 10SM CLR 13/M01 A2997 RMK AO2
KXVG 191536Z AUTO 00000KT 10SM CLR 12/M02 A29 RMK AO2
KXVG 191516Z AUTO 00000KT 10SM CLR 11/M01 A2999 RMK AO2
KXVG 191456Z AUTO 21006KT 10SM CLR 09/M01 A2998 RMK AO2
KXVG 191436Z AUTO 19005KT 10SM CLR 08/M01 A2997 RMK AO2
KXVG 191416Z AUTO 18003KT 10SM CLR 06/00 A2997 RMK AO2
KXVG 191356Z AUTO 17003KT 10SM CLR 02/00 A2997 RMK AO2
KXVG 191336Z AUTO 00000KT 10SM CLR 02/M01 A2996 RMK AO2
KXVG 191316Z AUTO 00000KT 10SM CLR 01/M01 A2996 RMK AO2
KXVG 191256Z AUTO 18003KT 10SM CLR 01/M01 A2996 RMK AO2
KXVG 191236Z AUTO 00000KT 10SM CLR 05/M01 A2996 RMK AO2
KXVG 191216Z AUTO 22004KT 10SM CLR 04/M01 A2996 RMK AO2
KXVG 191156Z AUTO 22003KT 10SM CLR 03/M02 A2995 RMK AO2
KXVG 191136Z AUTO 22003KT 10SM CLR 05/M02 A2995 RMK AO2
KXVG 191116Z AUTO 23003KT 10SM CLR 06/M02 A2996 RMK AO2
KXVG 191056Z AUTO 23003KT 10SM CLR 06/M02 A2995 RMK AO2
KXVG 191036Z AUTO 24005KT 10SM CLR 06/M03 A2995 RMK AO2
KXVG 191016Z AUTO 24006KT 10SM CLR 06/M03 A2995 RMK AO2
KXVG 190956Z AUTO 25003KT 10SM CLR 06/M03 A2995 RMK AO2
KXVG 190936Z AUTO 24004KT 10SM CLR 06/M03 A2994 RMK AO2
KXVG 190916Z AUTO 24003KT 10SM CLR 06/M03 A2994 RMK AO2
KXVG 190856Z AUTO 24006KT 10SM CLR 07/M03 A2994 RMK AO2
KXVG 190836Z AUTO 24005KT 10SM CLR 07/M03 A2994 RMK AO2
KXVG 190816Z AUTO 24004KT 10SM CLR 07/M03 A2994 RMK AO2
KXVG 190756Z AUTO 25004KT 10SM CLR 07/M04 A2994 RMK AO2
KXVG 190736Z AUTO 25007KT 10SM CLR 07/M04 A2993 RMK AO2
KXVG 190716Z AUTO 26006KT 10SM CLR 07/M04 A2993 RMK AO2
KXVG 190656Z AUTO 25006KT 10SM CLR 08/M04 A2992 RMK AO2
KXVG 190636Z AUTO 24006KT 10SM CLR 08/M04 A2992 RMK AO2
KXVG 190616Z AUTO 25007KT 10SM CLR 08/M04 A2992 RMK AO2
KXVG 190556Z AUTO 24007KT 10SM CLR 08/M04 A2991 RMK AO2
KXVG 190536Z AUTO 24006KT 10SM CLR 08/M05 A2991 RMK AO2
KXVG 190516Z AUTO 23006KT 10SM CLR 08/M05 A2991 RMK AO2
KXVG 190456Z AUTO 23005KT 10SM CLR 08/M04 A2990 RMK AO2
KXVG 190436Z AUTO 23005KT 10SM CLR 08/M05 A2990 RMK AO2
KXVG 190416Z AUTO 24005KT 10SM CLR 09/M07 A2990 RMK AO2
KXVG 190356Z AUTO 25006G14KT 10SM CLR 09/M07 A2990 RMK AO2
KXVG 190336Z AUTO 25006KT 10SM CLR 09/M07 A2989 RMK AO2
KXVG 190316Z AUTO 25007KT 10SM CLR 10/M08 A2989 RMK AO2
KXVG 190256Z AUTO 26008G15KT 10SM CLR 10/M08 A2989 RMK AO2
KXVG 190236Z AUTO 25007G15KT 10SM CLR 10/M08 A2987 RMK AO2
KXVG 190216Z AUTO 25008G15KT 10SM CLR 11/M09 A2987 RMK AO2
KXVG 190156Z AUTO 26008G14KT 10SM CLR 11/M09 A2987 RMK AO2
KXVG 190136Z AUTO 26011G19KT 10SM CLR 11/M10 A2987 RMK AO2
KXVG 190116Z AUTO 26010G20KT 10SM CLR 11/M11 A2986 RMK AO2
KXVG 190056Z AUTO 26007G20KT 10SM CLR 12/M11 A2986 RMK AO2
KXVG 190036Z AUTO 26014G19KT 10SM CLR 12/M11 A2985 RMK AO2
KXVG 190016Z AUTO 25011G18KT 10SM CLR 12/M10 A2985 RMK AO2
KXVG 182356Z AUTO 26009KT 10SM CLR 12/M11 A2984 RMK AO2
KXVG 182336Z AUTO 26007G19KT 10SM CLR 13/M12 A2983 RMK AO2
KXVG 182316Z AUTO 26008G15KT 10SM CLR 13/M10 A2983 RMK AO2
KXVG 182256Z AUTO 26009G16KT 10SM CLR 13/M11 A2982 RMK AO2
KXVG 182236Z AUTO 27010G20KT 10SM CLR 14/M11 A2981 RMK AO2
KXVG 182216Z AUTO 25014G19KT 10SM CLR 14/M12 A2981 RMK AO2
KXVG 182156Z AUTO 27011G19KT 244V304 10SM CLR 16/M11 A2980 RMK AO2
KXVG 182136Z AUTO 24012G22KT 10SM CLR 16/M11 A2979 RMK AO2
KXVG 182116Z AUTO 26015G21KT 10SM CLR 16/M11 A2979 RMK AO2